createdAt,value
2022-09-02T00:01:42.430Z,97683.75
2022-09-02T00:11:46.147Z,97674.00
2022-09-02T00:21:49.101Z,97674.97
2022-09-02T00:31:50.914Z,97657.19
2022-09-02T00:41:52.938Z,97653.16
2022-09-02T00:52:02.107Z,97654.19
2022-09-02T01:02:05.255Z,97653.78
2022-09-02T01:12:08.118Z,97654.44
2022-09-02T01:22:22.574Z,97652.81
2022-09-02T01:32:27.002Z,97645.34
2022-09-02T01:42:29.705Z,97637.69
2022-09-02T01:52:32.280Z,97637.19
2022-09-02T02:02:34.365Z,97635.56
2022-09-02T02:12:38.061Z,97627.38
2022-09-02T02:22:40.934Z,97628.44
2022-09-02T02:32:43.289Z,97615.50
2022-09-02T02:42:48.195Z,97614.72
2022-09-02T02:52:51.853Z,97614.75
2022-09-02T03:03:00.427Z,97613.19
2022-09-02T03:13:03.385Z,97611.72
2022-09-02T03:23:05.592Z,97612.09
2022-09-02T03:33:07.980Z,97599.69
2022-09-02T03:43:09.595Z,97589.66
2022-09-02T03:53:16.340Z,97594.66
2022-09-02T04:03:23.930Z,97602.63
2022-09-02T04:13:25.860Z,97602.34
2022-09-02T04:23:28.697Z,97598.50
2022-09-02T04:33:30.273Z,97595.28
2022-09-02T04:43:31.984Z,97594.41
2022-09-02T04:53:34.553Z,97601.50
2022-09-02T05:03:38.134Z,97606.47
2022-09-02T05:13:42.202Z,97603.91
2022-09-02T05:23:43.854Z,97600.81
2022-09-02T05:33:46.106Z,97610.09
2022-09-02T05:43:57.156Z,97609.47
2022-09-02T05:54:03.476Z,97604.06
2022-09-02T06:04:06.626Z,97608.97
2022-09-02T06:14:09.464Z,97601.72
2022-09-02T06:24:13.981Z,97600.44
2022-09-02T06:34:19.346Z,97604.50
2022-09-02T06:44:23.234Z,97593.56
2022-09-02T06:54:25.624Z,97591.94
2022-09-02T07:04:57.692Z,97573.63
2022-09-02T07:14:59.630Z,97570.00
2022-09-02T07:25:11.667Z,97551.91
2022-09-02T07:35:13.467Z,97549.44
2022-09-02T07:45:15.830Z,97552.25
2022-09-02T07:55:20.158Z,97546.63
2022-09-02T08:05:22.251Z,97542.34
2022-09-02T08:15:24.367Z,97527.25
2022-09-02T08:25:26.170Z,97524.81
2022-09-02T08:35:27.746Z,97519.66
2022-09-02T08:45:38.704Z,97501.16
2022-09-02T08:55:47.151Z,97492.72
2022-09-02T09:06:05.363Z,97490.25
2022-09-02T09:16:22.716Z,97484.94
2022-09-02T09:26:29.029Z,97476.78
2022-09-02T09:36:43.652Z,97467.09
2022-09-02T09:46:45.153Z,97453.22
2022-09-02T09:56:46.839Z,97432.19
2022-09-02T10:06:48.900Z,97425.63
2022-09-02T10:17:24.491Z,97437.03
2022-09-02T10:27:44.628Z,97419.38
2022-09-02T10:38:12.323Z,97415.06
2022-09-02T10:48:38.038Z,97405.88
2022-09-02T10:58:56.955Z,97410.03
2022-09-02T11:09:09.469Z,97394.91
2022-09-02T11:19:16.173Z,97405.81
2022-09-02T11:29:23.337Z,97410.22
2022-09-02T11:40:11.580Z,97403.03
2022-09-02T11:50:23.897Z,97393.47
2022-09-02T12:00:54.157Z,97392.81
2022-09-02T12:10:55.827Z,97376.38
2022-09-02T12:20:57.225Z,97377.97
2022-09-02T12:31:01.633Z,97382.25
2022-09-02T12:41:06.114Z,97364.69
2022-09-02T12:51:09.946Z,97365.34
2022-09-02T13:01:36.363Z,97348.56
2022-09-02T13:12:20.880Z,97345.94
2022-09-02T13:22:40.438Z,97329.78
2022-09-02T13:32:42.237Z,97331.53
2022-09-02T13:42:55.470Z,97330.22
2022-09-02T14:03:23.171Z,97298.06
2022-09-02T14:13:25.265Z,97296.91
2022-09-02T14:23:30.266Z,97286.44
2022-09-02T14:33:42.572Z,97278.94
2022-09-02T14:43:54.404Z,97272.53
2022-09-02T14:53:55.860Z,97263.03
2022-09-02T15:03:57.877Z,97254.88
2022-09-02T15:13:59.428Z,97241.38
2022-09-02T15:24:00.964Z,97240.44
2022-09-02T15:34:03.022Z,97231.66
2022-09-02T15:44:07.552Z,97232.66
2022-09-02T15:54:11.405Z,97233.81
2022-09-02T16:04:19.017Z,97220.03
2022-09-02T16:14:21.646Z,97215.44
2022-09-02T16:24:24.535Z,97223.81
2022-09-02T16:34:26.587Z,97225.59
2022-09-02T16:44:28.946Z,97218.44
2022-09-02T16:54:32.432Z,97210.22
2022-09-02T17:04:35.865Z,97215.25
2022-09-02T17:14:37.704Z,97223.56
2022-09-02T17:24:41.846Z,97220.72
2022-09-02T17:34:43.386Z,97224.22
2022-09-02T17:44:45.134Z,97231.34
2022-09-02T17:54:49.786Z,97238.09
2022-09-02T18:05:08.481Z,97247.97
2022-09-02T18:15:15.727Z,97245.31
2022-09-02T18:25:37.761Z,97248.97
2022-09-02T18:35:57.527Z,97257.56
2022-09-02T18:46:02.321Z,97265.13
2022-09-02T18:56:09.754Z,97251.81
2022-09-02T19:06:20.490Z,97262.38
2022-09-02T19:16:26.714Z,97285.97
2022-09-02T19:26:28.282Z,97302.38
2022-09-02T19:36:32.610Z,97308.81
2022-09-02T19:56:55.618Z,97292.88
2022-09-02T20:06:58.857Z,97289.56
2022-09-02T20:17:03.670Z,97308.13
2022-09-02T20:27:39.929Z,97305.22
2022-09-02T20:38:03.189Z,97300.16
2022-09-02T20:48:10.686Z,97289.19
2022-09-02T20:58:28.400Z,97300.91
2022-09-02T21:08:45.773Z,97295.66
2022-09-02T21:19:00.582Z,97295.78
2022-09-02T21:29:11.018Z,97309.03
2022-09-02T21:39:17.657Z,97320.91
2022-09-02T21:49:49.448Z,97318.94
2022-09-02T22:00:05.845Z,97301.94
2022-09-02T22:10:32.736Z,97303.97
2022-09-02T22:20:39.036Z,97311.19
2022-09-02T22:30:47.727Z,97311.28
2022-09-02T22:41:23.667Z,97308.72
2022-09-02T22:51:57.365Z,97306.88
2022-09-02T23:02:23.413Z,97311.69
2022-09-02T23:12:42.526Z,97304.41
2022-09-02T23:22:57.487Z,97290.38
2022-09-02T23:33:09.980Z,97292.13
2022-09-02T23:43:17.926Z,97276.41
2022-09-02T23:53:43.813Z,97284.91
